sensor_id;sensor_type;location;lat;lon;timestamp;pressure;altitude;pressure_sealevel;temperature;humidity
43711;BME280;29309;42.682;23.372;2023-03-31T00:00:32;95182.34;;;9.06;55.59
43711;BME280;29309;42.682;23.372;2023-03-31T00:02:57;95175.59;;;9.09;55.99
43711;BME280;29309;42.682;23.372;2023-03-31T00:05:26;95180.91;;;9.05;56.12
43711;BME280;29309;42.682;23.372;2023-03-31T00:07:56;95185.84;;;9.07;55.84
43711;BME280;29309;42.682;23.372;2023-03-31T00:10:31;95183.09;;;9.07;55.72
43711;BME280;29309;42.682;23.372;2023-03-31T00:12:58;95181.53;;;9.04;56.36
43711;BME280;29309;42.682;23.372;2023-03-31T00:15:24;95171.69;;;9.01;56.37
43711;BME280;29309;42.682;23.372;2023-03-31T00:17:50;95177.91;;;9.01;56.62
43711;BME280;29309;42.682;23.372;2023-03-31T00:20:15;95166.03;;;8.99;56.07
43711;BME280;29309;42.682;23.372;2023-03-31T00:22:41;95173.00;;;9.00;56.59
43711;BME280;29309;42.682;23.372;2023-03-31T00:25:11;95177.81;;;8.99;56.70
43711;BME280;29309;42.682;23.372;2023-03-31T00:27:37;95167.84;;;8.94;56.81
43711;BME280;29309;42.682;23.372;2023-03-31T00:30:03;95177.59;;;8.95;56.92
43711;BME280;29309;42.682;23.372;2023-03-31T00:32:28;95170.50;;;8.92;56.13
43711;BME280;29309;42.682;23.372;2023-03-31T00:34:54;95170.28;;;8.88;56.37
43711;BME280;29309;42.682;23.372;2023-03-31T00:37:20;95167.19;;;8.82;56.49
43711;BME280;29309;42.682;23.372;2023-03-31T00:39:46;95164.66;;;8.86;56.12
43711;BME280;29309;42.682;23.372;2023-03-31T00:42:11;95154.16;;;8.84;57.06
43711;BME280;29309;42.682;23.372;2023-03-31T00:47:54;95152.84;;;8.85;57.69
43711;BME280;29309;42.682;23.372;2023-03-31T00:50:25;95160.44;;;8.85;57.84
43711;BME280;29309;42.682;23.372;2023-03-31T00:53:07;95152.13;;;8.85;58.13
43711;BME280;29309;42.682;23.372;2023-03-31T00:55:40;95153.56;;;8.86;58.01
43711;BME280;29309;42.682;23.372;2023-03-31T00:58:07;95153.44;;;8.84;58.32
43711;BME280;29309;42.682;23.372;2023-03-31T01:00:39;95135.38;;;8.83;58.79
43711;BME280;29309;42.682;23.372;2023-03-31T01:03:06;95139.38;;;8.80;58.61
43711;BME280;29309;42.682;23.372;2023-03-31T01:06:01;95136.59;;;8.80;59.34
43711;BME280;29309;42.682;23.372;2023-03-31T01:08:30;95136.59;;;8.80;59.38
43711;BME280;29309;42.682;23.372;2023-03-31T01:11:00;95131.78;;;8.80;59.45
43711;BME280;29309;42.682;23.372;2023-03-31T01:13:28;95138.78;;;8.81;60.08
43711;BME280;29309;42.682;23.372;2023-03-31T01:15:55;95138.88;;;8.83;59.48
43711;BME280;29309;42.682;23.372;2023-03-31T01:18:20;95134.78;;;8.84;59.70
43711;BME280;29309;42.682;23.372;2023-03-31T01:26:56;95141.50;;;8.93;60.62
43711;BME280;29309;42.682;23.372;2023-03-31T01:29:50;95147.13;;;8.95;60.60
43711;BME280;29309;42.682;23.372;2023-03-31T01:33:04;95141.91;;;9.01;60.66
43711;BME280;29309;42.682;23.372;2023-03-31T01:41:06;95158.31;;;8.97;61.34
43711;BME280;29309;42.682;23.372;2023-03-31T01:43:47;95156.75;;;8.94;61.30
43711;BME280;29309;42.682;23.372;2023-03-31T01:46:27;95158.47;;;8.87;59.58
43711;BME280;29309;42.682;23.372;2023-03-31T01:49:24;95167.28;;;8.84;60.06
43711;BME280;29309;42.682;23.372;2023-03-31T01:52:03;95166.34;;;8.79;60.22
43711;BME280;29309;42.682;23.372;2023-03-31T01:54:45;95173.22;;;8.78;60.27
43711;BME280;29309;42.682;23.372;2023-03-31T01:57:35;95177.31;;;8.77;60.17
43711;BME280;29309;42.682;23.372;2023-03-31T02:00:07;95174.31;;;8.73;60.49
43711;BME280;29309;42.682;23.372;2023-03-31T02:02:45;95177.34;;;8.66;60.68
43711;BME280;29309;42.682;23.372;2023-03-31T02:05:17;95174.34;;;8.62;60.10
43711;BME280;29309;42.682;23.372;2023-03-31T02:07:52;95178.22;;;8.57;60.06
43711;BME280;29309;42.682;23.372;2023-03-31T02:10:20;95163.75;;;8.58;60.25
43711;BME280;29309;42.682;23.372;2023-03-31T02:12:48;95175.78;;;8.63;61.18
43711;BME280;29309;42.682;23.372;2023-03-31T02:15:20;95168.31;;;8.65;60.54
43711;BME280;29309;42.682;23.372;2023-03-31T02:17:51;95182.50;;;8.71;60.27
43711;BME280;29309;42.682;23.372;2023-03-31T02:20:20;95188.38;;;8.77;60.20
43711;BME280;29309;42.682;23.372;2023-03-31T02:22:49;95198.13;;;8.78;59.86
43711;BME280;29309;42.682;23.372;2023-03-31T02:25:19;95207.25;;;8.81;60.85
43711;BME280;29309;42.682;23.372;2023-03-31T02:27:55;95204.50;;;8.81;60.96
43711;BME280;29309;42.682;23.372;2023-03-31T02:30:30;95207.97;;;8.81;62.19
43711;BME280;29309;42.682;23.372;2023-03-31T02:33:00;95213.50;;;8.81;63.42
43711;BME280;29309;42.682;23.372;2023-03-31T02:35:28;95208.56;;;8.80;63.61
43711;BME280;29309;42.682;23.372;2023-03-31T02:37:54;95214.84;;;8.80;63.88
43711;BME280;29309;42.682;23.372;2023-03-31T02:40:23;95217.09;;;8.84;65.43
43711;BME280;29309;42.682;23.372;2023-03-31T02:42:52;95229.72;;;8.87;65.36
43711;BME280;29309;42.682;23.372;2023-03-31T02:45:45;95218.78;;;8.89;66.53
43711;BME280;29309;42.682;23.372;2023-03-31T02:59:56;95186.81;;;8.74;69.64
43711;BME280;29309;42.682;23.372;2023-03-31T03:05:27;95185.47;;;8.75;69.61
43711;BME280;29309;42.682;23.372;2023-03-31T03:08:13;95176.59;;;8.77;69.57
43711;BME280;29309;42.682;23.372;2023-03-31T03:13:43;95168.84;;;8.87;70.13
43711;BME280;29309;42.682;23.372;2023-03-31T03:16:17;95171.09;;;8.90;71.47
43711;BME280;29309;42.682;23.372;2023-03-31T03:19:04;95166.41;;;8.93;71.09
43711;BME280;29309;42.682;23.372;2023-03-31T03:21:31;95154.50;;;8.90;71.48
43711;BME280;29309;42.682;23.372;2023-03-31T03:23:57;95146.91;;;8.91;71.12
43711;BME280;29309;42.682;23.372;2023-03-31T03:26:24;95150.41;;;8.92;70.88
43711;BME280;29309;42.682;23.372;2023-03-31T03:28:53;95158.22;;;8.95;69.59
43711;BME280;29309;42.682;23.372;2023-03-31T03:31:20;95150.13;;;8.99;69.34
43711;BME280;29309;42.682;23.372;2023-03-31T03:33:48;95155.88;;;9.03;69.43
43711;BME280;29309;42.682;23.372;2023-03-31T03:36:14;95146.25;;;9.04;69.75
43711;BME280;29309;42.682;23.372;2023-03-31T03:38:40;95153.94;;;9.06;69.39
43711;BME280;29309;42.682;23.372;2023-03-31T03:41:06;95138.88;;;9.09;68.78
43711;BME280;29309;42.682;23.372;2023-03-31T03:43:31;95140.91;;;9.08;68.15
43711;BME280;29309;42.682;23.372;2023-03-31T03:45:57;95139.72;;;9.11;68.05
43711;BME280;29309;42.682;23.372;2023-03-31T03:48:22;95134.88;;;9.12;68.35
43711;BME280;29309;42.682;23.372;2023-03-31T03:50:48;95134.06;;;9.09;69.05
43711;BME280;29309;42.682;23.372;2023-03-31T03:53:14;95135.88;;;9.05;71.51
43711;BME280;29309;42.682;23.372;2023-03-31T03:55:40;95133.25;;;9.07;71.34
43711;BME280;29309;42.682;23.372;2023-03-31T03:58:05;95136.09;;;9.09;70.95
43711;BME280;29309;42.682;23.372;2023-03-31T04:00:31;95122.75;;;9.05;73.41
43711;BME280;29309;42.682;23.372;2023-03-31T04:02:57;95144.47;;;8.97;74.83
43711;BME280;29309;42.682;23.372;2023-03-31T04:05:25;95144.75;;;8.89;74.06
43711;BME280;29309;42.682;23.372;2023-03-31T04:07:51;95139.09;;;8.87;73.54
43711;BME280;29309;42.682;23.372;2023-03-31T04:10:19;95143.91;;;8.87;73.71
43711;BME280;29309;42.682;23.372;2023-03-31T04:12:44;95154.25;;;8.86;73.78
43711;BME280;29309;42.682;23.372;2023-03-31T04:15:10;95157.16;;;8.88;73.29
43711;BME280;29309;42.682;23.372;2023-03-31T04:17:35;95152.44;;;8.91;73.34
43711;BME280;29309;42.682;23.372;2023-03-31T04:20:08;95147.22;;;8.97;73.49
43711;BME280;29309;42.682;23.372;2023-03-31T04:22:36;95147.22;;;8.97;73.56
43711;BME280;29309;42.682;23.372;2023-03-31T04:25:14;95153.72;;;9.02;74.26
43711;BME280;29309;42.682;23.372;2023-03-31T04:27:45;95148.91;;;9.02;74.15
43711;BME280;29309;42.682;23.372;2023-03-31T04:30:17;95137.97;;;9.04;74.07
43711;BME280;29309;42.682;23.372;2023-03-31T04:35:16;95148.63;;;9.10;73.95
43711;BME280;29309;42.682;23.372;2023-03-31T04:37:43;95142.50;;;9.11;74.00
43711;BME280;29309;42.682;23.372;2023-03-31T04:40:09;95140.63;;;9.16;74.33
43711;BME280;29309;42.682;23.372;2023-03-31T04:42:34;95135.72;;;9.14;74.04
43711;BME280;29309;42.682;23.372;2023-03-31T04:45:01;95140.84;;;9.20;74.75
43711;BME280;29309;42.682;23.372;2023-03-31T04:47:27;95131.94;;;9.21;74.72
43711;BME280;29309;42.682;23.372;2023-03-31T04:49:52;95131.72;;;9.17;74.25
43711;BME280;29309;42.682;23.372;2023-03-31T04:52:18;95127.06;;;9.08;73.87
43711;BME280;29309;42.682;23.372;2023-03-31T04:54:43;95129.34;;;9.12;74.07
43711;BME280;29309;42.682;23.372;2023-03-31T04:57:09;95135.50;;;9.10;74.33
43711;BME280;29309;42.682;23.372;2023-03-31T04:59:34;95127.41;;;9.14;74.55
43711;BME280;29309;42.682;23.372;2023-03-31T05:02:00;95129.47;;;9.14;75.03
43711;BME280;29309;42.682;23.372;2023-03-31T05:04:25;95131.00;;;9.17;74.83
43711;BME280;29309;42.682;23.372;2023-03-31T05:06:51;95133.19;;;9.18;74.67
43711;BME280;29309;42.682;23.372;2023-03-31T05:09:16;95129.69;;;9.18;74.49
43711;BME280;29309;42.682;23.372;2023-03-31T05:11:42;95127.13;;;9.22;74.34
43711;BME280;29309;42.682;23.372;2023-03-31T05:14:07;95131.22;;;9.21;74.58
43711;BME280;29309;42.682;23.372;2023-03-31T05:16:33;95118.69;;;9.20;74.09
43711;BME280;29309;42.682;23.372;2023-03-31T05:18:58;95105.25;;;9.14;74.12
43711;BME280;29309;42.682;23.372;2023-03-31T05:21:24;95112.22;;;9.15;73.93
43711;BME280;29309;42.682;23.372;2023-03-31T05:23:51;95104.25;;;9.21;73.73
43711;BME280;29309;42.682;23.372;2023-03-31T05:26:17;95107.97;;;9.26;74.09
43711;BME280;29309;42.682;23.372;2023-03-31T05:28:42;95107.66;;;9.33;73.54
43711;BME280;29309;42.682;23.372;2023-03-31T05:31:09;95110.03;;;9.39;73.35
43711;BME280;29309;42.682;23.372;2023-03-31T05:33:35;95113.97;;;9.48;73.80
43711;BME280;29309;42.682;23.372;2023-03-31T05:36:07;95112.28;;;9.43;73.09
43711;BME280;29309;42.682;23.372;2023-03-31T05:38:33;95099.25;;;9.45;72.91
43711;BME280;29309;42.682;23.372;2023-03-31T05:41:03;95104.28;;;9.49;72.35
43711;BME280;29309;42.682;23.372;2023-03-31T05:43:28;95101.13;;;9.54;72.09
43711;BME280;29309;42.682;23.372;2023-03-31T05:45:54;95094.88;;;9.54;72.36
43711;BME280;29309;42.682;23.372;2023-03-31T05:48:19;95091.06;;;9.61;72.85
43711;BME280;29309;42.682;23.372;2023-03-31T05:50:46;95095.28;;;9.75;72.54
43711;BME280;29309;42.682;23.372;2023-03-31T05:53:12;95097.03;;;9.82;71.52
43711;BME280;29309;42.682;23.372;2023-03-31T05:55:38;95099.38;;;9.88;70.14
43711;BME280;29309;42.682;23.372;2023-03-31T05:58:04;95106.28;;;9.87;70.66
43711;BME280;29309;42.682;23.372;2023-03-31T06:00:31;95100.59;;;9.99;70.36
43711;BME280;29309;42.682;23.372;2023-03-31T06:02:56;95107.50;;;10.11;70.88
43711;BME280;29309;42.682;23.372;2023-03-31T06:05:23;95107.28;;;10.21;70.67
43711;BME280;29309;42.682;23.372;2023-03-31T06:07:52;95111.06;;;10.27;69.80
43711;BME280;29309;42.682;23.372;2023-03-31T06:10:18;95118.47;;;10.36;69.23
43711;BME280;29309;42.682;23.372;2023-03-31T06:12:44;95118.56;;;10.38;68.02
43711;BME280;29309;42.682;23.372;2023-03-31T06:15:09;95112.91;;;10.36;67.13
43711;BME280;29309;42.682;23.372;2023-03-31T06:17:35;95115.19;;;10.40;67.13
43711;BME280;29309;42.682;23.372;2023-03-31T06:20:00;95114.84;;;10.48;66.88
43711;BME280;29309;42.682;23.372;2023-03-31T06:22:26;95110.31;;;10.54;66.56
43711;BME280;29309;42.682;23.372;2023-03-31T06:24:51;95098.06;;;10.59;66.34
43711;BME280;29309;42.682;23.372;2023-03-31T06:27:20;95101.94;;;10.68;66.36
43711;BME280;29309;42.682;23.372;2023-03-31T06:29:45;95104.72;;;10.68;66.77
43711;BME280;29309;42.682;23.372;2023-03-31T06:32:10;95108.78;;;10.80;66.37
43711;BME280;29309;42.682;23.372;2023-03-31T06:34:36;95116.28;;;11.07;65.45
43711;BME280;29309;42.682;23.372;2023-03-31T06:37:01;95112.84;;;11.38;64.97
43711;BME280;29309;42.682;23.372;2023-03-31T06:39:27;95103.97;;;11.73;63.57
43711;BME280;29309;42.682;23.372;2023-03-31T06:41:52;95112.66;;;11.97;62.94
43711;BME280;29309;42.682;23.372;2023-03-31T06:44:18;95116.28;;;12.32;61.85
43711;BME280;29309;42.682;23.372;2023-03-31T06:46:47;95098.09;;;12.65;60.45
43711;BME280;29309;42.682;23.372;2023-03-31T06:49:12;95115.59;;;13.03;58.52
43711;BME280;29309;42.682;23.372;2023-03-31T06:51:38;95116.50;;;13.25;56.79
43711;BME280;29309;42.682;23.372;2023-03-31T06:54:03;95120.94;;;13.32;56.44
43711;BME280;29309;42.682;23.372;2023-03-31T06:56:29;95120.09;;;13.27;56.49
43711;BME280;29309;42.682;23.372;2023-03-31T06:58:54;95108.81;;;13.43;55.83
43711;BME280;29309;42.682;23.372;2023-03-31T07:01:20;95108.97;;;13.47;55.84
43711;BME280;29309;42.682;23.372;2023-03-31T07:03:45;95099.88;;;13.47;55.96
43711;BME280;29309;42.682;23.372;2023-03-31T07:06:10;95098.69;;;13.52;55.17
43711;BME280;29309;42.682;23.372;2023-03-31T07:08:36;95089.81;;;13.57;54.96
43711;BME280;29309;42.682;23.372;2023-03-31T07:11:01;95072.16;;;13.51;54.59
43711;BME280;29309;42.682;23.372;2023-03-31T07:13:27;95052.16;;;13.19;55.72
43711;BME280;29309;42.682;23.372;2023-03-31T07:15:54;95052.94;;;13.21;55.48
43711;BME280;29309;42.682;23.372;2023-03-31T07:18:20;95052.91;;;13.39;55.43
43711;BME280;29309;42.682;23.372;2023-03-31T07:20:50;95051.06;;;13.85;53.92
43711;BME280;29309;42.682;23.372;2023-03-31T07:23:15;95038.34;;;14.21;52.50
43711;BME280;29309;42.682;23.372;2023-03-31T07:25:41;95031.25;;;14.60;51.80
43711;BME280;29309;42.682;23.372;2023-03-31T07:28:06;95032.28;;;14.94;52.97
43711;BME280;29309;42.682;23.372;2023-03-31T07:30:32;95036.16;;;15.31;48.54
43711;BME280;29309;42.682;23.372;2023-03-31T07:32:57;95036.09;;;15.76;46.88
43711;BME280;29309;42.682;23.372;2023-03-31T07:35:23;95052.22;;;16.03;45.85
43711;BME280;29309;42.682;23.372;2023-03-31T07:37:50;95053.25;;;16.44;45.34
43711;BME280;29309;42.682;23.372;2023-03-31T07:40:22;95043.59;;;16.77;43.05
43711;BME280;29309;42.682;23.372;2023-03-31T07:42:48;95035.16;;;16.77;43.54
43711;BME280;29309;42.682;23.372;2023-03-31T07:45:16;95035.59;;;16.95;43.07
43711;BME280;29309;42.682;23.372;2023-03-31T07:47:42;95032.28;;;17.04;41.18
43711;BME280;29309;42.682;23.372;2023-03-31T07:50:09;95033.63;;;17.33;42.57
43711;BME280;29309;42.682;23.372;2023-03-31T07:52:34;95025.16;;;17.63;39.51
43711;BME280;29309;42.682;23.372;2023-03-31T07:55:00;95021.69;;;18.00;39.66
43711;BME280;29309;42.682;23.372;2023-03-31T07:57:28;95025.28;;;18.45;37.88
43711;BME280;29309;42.682;23.372;2023-03-31T07:59:54;95025.72;;;18.71;37.52
43711;BME280;29309;42.682;23.372;2023-03-31T08:02:19;95022.03;;;19.04;36.81
43711;BME280;29309;42.682;23.372;2023-03-31T08:04:45;95023.19;;;19.39;35.33
43711;BME280;29309;42.682;23.372;2023-03-31T08:07:12;95018.53;;;19.58;34.46
43711;BME280;29309;42.682;23.372;2023-03-31T08:09:38;95017.97;;;19.68;34.66
43711;BME280;29309;42.682;23.372;2023-03-31T08:12:04;95018.34;;;19.42;34.51
43711;BME280;29309;42.682;23.372;2023-03-31T08:14:29;95005.06;;;18.98;34.77
43711;BME280;29309;42.682;23.372;2023-03-31T08:16:55;94998.31;;;18.72;35.52
43711;BME280;29309;42.682;23.372;2023-03-31T08:19:23;94997.28;;;18.11;35.96
43711;BME280;29309;42.682;23.372;2023-03-31T08:21:49;94993.50;;;17.96;36.24
43711;BME280;29309;42.682;23.372;2023-03-31T08:24:16;94997.31;;;17.75;36.90
43711;BME280;29309;42.682;23.372;2023-03-31T08:26:42;94990.00;;;17.60;37.12
43711;BME280;29309;42.682;23.372;2023-03-31T08:29:08;94988.81;;;17.37;37.54
43711;BME280;29309;42.682;23.372;2023-03-31T08:31:33;94988.81;;;17.03;37.82
43711;BME280;29309;42.682;23.372;2023-03-31T08:33:58;94990.38;;;17.10;39.15
43711;BME280;29309;42.682;23.372;2023-03-31T08:36:25;94988.00;;;16.99;38.28
43711;BME280;29309;42.682;23.372;2023-03-31T08:38:51;94985.34;;;16.73;39.05
43711;BME280;29309;42.682;23.372;2023-03-31T08:44:25;94981.25;;;16.20;39.27
43711;BME280;29309;42.682;23.372;2023-03-31T08:46:56;94991.59;;;16.14;39.95
43711;BME280;29309;42.682;23.372;2023-03-31T08:49:24;94989.09;;;15.98;39.89
43711;BME280;29309;42.682;23.372;2023-03-31T08:51:57;94981.25;;;15.93;40.20
43711;BME280;29309;42.682;23.372;2023-03-31T08:54:32;94984.44;;;15.81;40.45
43711;BME280;29309;42.682;23.372;2023-03-31T08:57:00;94982.25;;;15.77;40.69
43711;BME280;29309;42.682;23.372;2023-03-31T08:59:29;94974.56;;;15.52;40.61
43711;BME280;29309;42.682;23.372;2023-03-31T09:07:26;94970.56;;;15.34;41.59
43711;BME280;29309;42.682;23.372;2023-03-31T09:12:48;94964.59;;;15.21;41.80
43711;BME280;29309;42.682;23.372;2023-03-31T09:15:28;94965.38;;;15.24;41.06
43711;BME280;29309;42.682;23.372;2023-03-31T09:17:57;94965.56;;;15.30;42.41
43711;BME280;29309;42.682;23.372;2023-03-31T09:20:32;94952.38;;;15.35;41.40
43711;BME280;29309;42.682;23.372;2023-03-31T09:23:26;94955.53;;;15.72;40.90
43711;BME280;29309;42.682;23.372;2023-03-31T09:25:53;94948.81;;;16.11;40.40
43711;BME280;29309;42.682;23.372;2023-03-31T09:28:30;94944.13;;;16.50;39.31
43711;BME280;29309;42.682;23.372;2023-03-31T09:30:59;94951.69;;;16.73;38.98
43711;BME280;29309;42.682;23.372;2023-03-31T09:33:30;94953.34;;;16.84;38.32
43711;BME280;29309;42.682;23.372;2023-03-31T09:36:07;94943.88;;;16.99;37.98
43711;BME280;29309;42.682;23.372;2023-03-31T09:38:38;94953.50;;;17.26;37.18
43711;BME280;29309;42.682;23.372;2023-03-31T09:41:04;94946.19;;;17.45;37.17
43711;BME280;29309;42.682;23.372;2023-03-31T09:43:32;94946.53;;;17.61;36.64
43711;BME280;29309;42.682;23.372;2023-03-31T09:46:01;94946.59;;;17.65;36.39
43711;BME280;29309;42.682;23.372;2023-03-31T09:48:31;94939.66;;;17.70;36.15
43711;BME280;29309;42.682;23.372;2023-03-31T09:51:06;94937.47;;;17.64;36.33
43711;BME280;29309;42.682;23.372;2023-03-31T09:53:53;94933.06;;;17.93;36.47
43711;BME280;29309;42.682;23.372;2023-03-31T09:59:13;94920.84;;;18.18;34.91
43711;BME280;29309;42.682;23.372;2023-03-31T10:01:41;94916.75;;;18.26;35.12
43711;BME280;29309;42.682;23.372;2023-03-31T10:04:07;94921.94;;;18.43;35.52
43711;BME280;29309;42.682;23.372;2023-03-31T10:06:39;94920.16;;;18.64;36.54
43711;BME280;29309;42.682;23.372;2023-03-31T10:09:06;94910.63;;;18.85;35.20
43711;BME280;29309;42.682;23.372;2023-03-31T10:11:34;94909.34;;;18.94;34.58
43711;BME280;29309;42.682;23.372;2023-03-31T10:14:09;94908.09;;;19.07;34.06
43711;BME280;29309;42.682;23.372;2023-03-31T10:17:04;94903.34;;;19.20;33.35
43711;BME280;29309;42.682;23.372;2023-03-31T10:19:33;94911.38;;;18.90;33.91
43711;BME280;29309;42.682;23.372;2023-03-31T10:22:00;94899.38;;;18.85;33.48
43711;BME280;29309;42.682;23.372;2023-03-31T10:24:36;94895.16;;;18.86;33.76
43711;BME280;29309;42.682;23.372;2023-03-31T10:27:01;94895.66;;;18.71;33.79
43711;BME280;29309;42.682;23.372;2023-03-31T10:29:31;94898.75;;;18.43;33.89
43711;BME280;29309;42.682;23.372;2023-03-31T10:32:09;94891.59;;;18.34;34.43
43711;BME280;29309;42.682;23.372;2023-03-31T10:34:41;94883.25;;;18.40;34.68
43711;BME280;29309;42.682;23.372;2023-03-31T10:37:13;94878.66;;;18.14;34.52
43711;BME280;29309;42.682;23.372;2023-03-31T10:39:42;94875.84;;;18.16;35.10
43711;BME280;29309;42.682;23.372;2023-03-31T10:42:08;94880.81;;;18.18;35.25
43711;BME280;29309;42.682;23.372;2023-03-31T10:44:36;94868.94;;;18.24;36.25
43711;BME280;29309;42.682;23.372;2023-03-31T10:47:22;94868.06;;;18.13;36.27
43711;BME280;29309;42.682;23.372;2023-03-31T10:49:49;94870.88;;;18.13;35.62
43711;BME280;29309;42.682;23.372;2023-03-31T10:52:22;94869.41;;;18.08;35.33
43711;BME280;29309;42.682;23.372;2023-03-31T10:54:52;94865.75;;;17.97;37.25
43711;BME280;29309;42.682;23.372;2023-03-31T10:57:28;94874.66;;;17.86;37.13
43711;BME280;29309;42.682;23.372;2023-03-31T11:00:17;94872.44;;;17.80;37.01
43711;BME280;29309;42.682;23.372;2023-03-31T11:05:58;94860.16;;;17.57;37.64
43711;BME280;29309;42.682;23.372;2023-03-31T11:15:02;94856.38;;;17.83;37.45
43711;BME280;29309;42.682;23.372;2023-03-31T11:20:29;94842.19;;;17.75;36.76
43711;BME280;29309;42.682;23.372;2023-03-31T11:28:20;94832.78;;;17.58;37.37
43711;BME280;29309;42.682;23.372;2023-03-31T11:33:49;94815.41;;;17.69;36.65
43711;BME280;29309;42.682;23.372;2023-03-31T11:37:20;94814.03;;;17.70;37.51
43711;BME280;29309;42.682;23.372;2023-03-31T11:39:51;94817.81;;;17.87;37.82
43711;BME280;29309;42.682;23.372;2023-03-31T11:42:28;94810.81;;;17.88;39.14
43711;BME280;29309;42.682;23.372;2023-03-31T11:45:18;94822.13;;;17.92;36.75
43711;BME280;29309;42.682;23.372;2023-03-31T11:47:49;94808.06;;;17.92;36.26
43711;BME280;29309;42.682;23.372;2023-03-31T11:50:36;94806.72;;;17.95;36.44
43711;BME280;29309;42.682;23.372;2023-03-31T11:53:15;94803.28;;;18.01;36.54
43711;BME280;29309;42.682;23.372;2023-03-31T11:55:42;94794.81;;;17.99;36.65
43711;BME280;29309;42.682;23.372;2023-03-31T11:58:17;94801.78;;;17.94;36.47
43711;BME280;29309;42.682;23.372;2023-03-31T12:00:49;94791.25;;;17.94;37.06
43711;BME280;29309;42.682;23.372;2023-03-31T12:05:48;94780.28;;;18.12;36.90
43711;BME280;29309;42.682;23.372;2023-03-31T12:08:25;94783.44;;;18.39;35.79
43711;BME280;29309;42.682;23.372;2023-03-31T12:11:00;94782.28;;;18.56;36.04
43711;BME280;29309;42.682;23.372;2023-03-31T12:13:38;94772.72;;;18.77;35.30
43711;BME280;29309;42.682;23.372;2023-03-31T12:16:10;94767.31;;;18.99;35.42
43711;BME280;29309;42.682;23.372;2023-03-31T12:21:28;94767.72;;;19.40;33.49
43711;BME280;29309;42.682;23.372;2023-03-31T12:23:54;94762.28;;;19.56;33.74
43711;BME280;29309;42.682;23.372;2023-03-31T12:26:33;94763.72;;;19.61;33.69
43711;BME280;29309;42.682;23.372;2023-03-31T12:29:12;94766.22;;;19.29;34.17
43711;BME280;29309;42.682;23.372;2023-03-31T12:31:45;94766.75;;;19.09;34.41
43711;BME280;29309;42.682;23.372;2023-03-31T12:34:14;94749.72;;;18.95;34.22
43711;BME280;29309;42.682;23.372;2023-03-31T12:39:51;94750.38;;;18.35;35.01
43711;BME280;29309;42.682;23.372;2023-03-31T12:42:43;94746.72;;;18.25;36.40
43711;BME280;29309;42.682;23.372;2023-03-31T12:45:28;94740.34;;;18.20;36.17
43711;BME280;29309;42.682;23.372;2023-03-31T12:51:08;94722.69;;;18.11;36.15
43711;BME280;29309;42.682;23.372;2023-03-31T12:53:42;94711.38;;;18.07;36.24
43711;BME280;29309;42.682;23.372;2023-03-31T12:56:11;94709.91;;;18.02;36.24
43711;BME280;29309;42.682;23.372;2023-03-31T12:58:38;94705.72;;;18.03;36.71
43711;BME280;29309;42.682;23.372;2023-03-31T13:03:42;94697.34;;;18.07;35.96
43711;BME280;29309;42.682;23.372;2023-03-31T13:14:22;94672.25;;;18.24;36.08
43711;BME280;29309;42.682;23.372;2023-03-31T13:16:50;94661.72;;;18.24;36.03
43711;BME280;29309;42.682;23.372;2023-03-31T13:19:33;94663.22;;;18.31;36.05
43711;BME280;29309;42.682;23.372;2023-03-31T13:22:01;94640.81;;;18.37;36.10
43711;BME280;29309;42.682;23.372;2023-03-31T13:24:29;94637.34;;;18.43;36.53
43711;BME280;29309;42.682;23.372;2023-03-31T13:26:56;94619.81;;;18.46;37.09
43711;BME280;29309;42.682;23.372;2023-03-31T13:29:42;94633.28;;;18.52;36.01
43711;BME280;29309;42.682;23.372;2023-03-31T13:32:19;94616.28;;;18.44;36.51
43711;BME280;29309;42.682;23.372;2023-03-31T13:34:53;94617.63;;;18.37;36.35
43711;BME280;29309;42.682;23.372;2023-03-31T14:03:12;94570.06;;;17.93;39.20
43711;BME280;29309;42.682;23.372;2023-03-31T14:05:27;94571.50;;;17.94;36.66
43711;BME280;29309;42.682;23.372;2023-03-31T14:08:02;94572.81;;;17.89;36.53
43711;BME280;29309;42.682;23.372;2023-03-31T14:10:33;94565.06;;;17.87;36.86
43711;BME280;29309;42.682;23.372;2023-03-31T14:13:17;94561.59;;;17.87;36.46
43711;BME280;29309;42.682;23.372;2023-03-31T14:16:00;94548.22;;;17.87;36.60
43711;BME280;29309;42.682;23.372;2023-03-31T14:18:32;94560.88;;;17.88;37.45
43711;BME280;29309;42.682;23.372;2023-03-31T14:21:14;94563.03;;;17.90;36.61
43711;BME280;29309;42.682;23.372;2023-03-31T14:33:03;94536.31;;;17.87;37.40
43711;BME280;29309;42.682;23.372;2023-03-31T14:35:33;94546.09;;;17.84;37.34
43711;BME280;29309;42.682;23.372;2023-03-31T14:38:13;94542.59;;;17.83;36.64
43711;BME280;29309;42.682;23.372;2023-03-31T14:40:48;94537.66;;;17.84;36.79
43711;BME280;29309;42.682;23.372;2023-03-31T14:43:32;94534.13;;;17.81;37.20
43711;BME280;29309;42.682;23.372;2023-03-31T14:46:06;94535.47;;;17.76;37.18
43711;BME280;29309;42.682;23.372;2023-03-31T14:48:40;94529.06;;;17.67;36.82
43711;BME280;29309;42.682;23.372;2023-03-31T14:51:10;94529.03;;;17.65;37.16
43711;BME280;29309;42.682;23.372;2023-03-31T14:53:36;94518.44;;;17.60;37.97
43711;BME280;29309;42.682;23.372;2023-03-31T14:56:04;94523.34;;;17.59;37.33
43711;BME280;29309;42.682;23.372;2023-03-31T14:58:35;94524.72;;;17.56;38.53
43711;BME280;29309;42.682;23.372;2023-03-31T15:01:02;94518.34;;;17.54;38.04
43711;BME280;29309;42.682;23.372;2023-03-31T15:03:30;94517.72;;;17.57;37.82
43711;BME280;29309;42.682;23.372;2023-03-31T15:05:58;94521.91;;;17.56;37.69
43711;BME280;29309;42.682;23.372;2023-03-31T15:08:24;94518.34;;;17.54;37.54
43711;BME280;29309;42.682;23.372;2023-03-31T15:10:54;94514.78;;;17.51;37.61
43711;BME280;29309;42.682;23.372;2023-03-31T15:13:35;94516.88;;;17.49;37.57
43711;BME280;29309;42.682;23.372;2023-03-31T15:18:57;94514.72;;;17.43;37.71
43711;BME280;29309;42.682;23.372;2023-03-31T15:21:24;94514.72;;;17.45;37.75